sensor_id;sensor_type;location;lat;lon;timestamp;P1;durP1;ratioP1;P2;durP2;ratioP2
3274;SDS011;1649;53.672;10.064;2023-07-30T00:00:01;20.77;;;15.67;;
3274;SDS011;1649;53.672;10.064;2023-07-30T00:02:28;20.07;;;14.97;;
3274;SDS011;1649;53.672;10.064;2023-07-30T00:04:53;20.40;;;15.30;;
3274;SDS011;1649;53.672;10.064;2023-07-30T00:07:19;20.33;;;14.97;;
3274;SDS011;1649;53.672;10.064;2023-07-30T00:09:44;20.90;;;15.50;;
3274;SDS011;1649;53.672;10.064;2023-07-30T00:12:10;20.50;;;15.27;;
3274;SDS011;1649;53.672;10.064;2023-07-30T00:14:35;19.13;;;14.47;;
3274;SDS011;1649;53.672;10.064;2023-07-30T00:17:01;27.20;;;16.10;;
3274;SDS011;1649;53.672;10.064;2023-07-30T00:19:27;20.37;;;15.53;;
3274;SDS011;1649;53.672;10.064;2023-07-30T00:21:52;21.00;;;15.37;;
3274;SDS011;1649;53.672;10.064;2023-07-30T00:24:18;21.10;;;14.97;;
3274;SDS011;1649;53.672;10.064;2023-07-30T00:26:44;20.07;;;14.90;;
3274;SDS011;1649;53.672;10.064;2023-07-30T00:29:09;22.03;;;16.00;;
3274;SDS011;1649;53.672;10.064;2023-07-30T00:31:35;24.13;;;15.97;;
3274;SDS011;1649;53.672;10.064;2023-07-30T00:34:00;22.00;;;15.93;;
3274;SDS011;1649;53.672;10.064;2023-07-30T00:36:26;22.30;;;16.20;;
3274;SDS011;1649;53.672;10.064;2023-07-30T00:38:51;21.80;;;15.10;;
3274;SDS011;1649;53.672;10.064;2023-07-30T00:41:17;20.60;;;15.00;;
3274;SDS011;1649;53.672;10.064;2023-07-30T00:43:42;21.60;;;13.47;;
3274;SDS011;1649;53.672;10.064;2023-07-30T00:46:08;18.07;;;12.80;;
3274;SDS011;1649;53.672;10.064;2023-07-30T00:48:33;16.53;;;11.87;;
3274;SDS011;1649;53.672;10.064;2023-07-30T00:50:59;16.63;;;12.57;;
3274;SDS011;1649;53.672;10.064;2023-07-30T00:53:26;17.87;;;12.10;;
3274;SDS011;1649;53.672;10.064;2023-07-30T00:55:52;19.13;;;12.73;;
3274;SDS011;1649;53.672;10.064;2023-07-30T00:58:18;19.50;;;13.60;;
3274;SDS011;1649;53.672;10.064;2023-07-30T01:00:45;18.50;;;12.57;;
3274;SDS011;1649;53.672;10.064;2023-07-30T01:03:11;16.60;;;13.30;;
3274;SDS011;1649;53.672;10.064;2023-07-30T01:05:37;16.40;;;12.20;;
3274;SDS011;1649;53.672;10.064;2023-07-30T01:08:03;17.70;;;12.10;;
3274;SDS011;1649;53.672;10.064;2023-07-30T01:10:29;19.40;;;11.67;;
3274;SDS011;1649;53.672;10.064;2023-07-30T01:12:56;16.87;;;11.47;;
3274;SDS011;1649;53.672;10.064;2023-07-30T01:15:22;16.60;;;12.27;;
3274;SDS011;1649;53.672;10.064;2023-07-30T01:17:47;15.17;;;10.83;;
3274;SDS011;1649;53.672;10.064;2023-07-30T01:20:13;15.10;;;11.80;;
3274;SDS011;1649;53.672;10.064;2023-07-30T01:22:38;15.53;;;11.83;;
3274;SDS011;1649;53.672;10.064;2023-07-30T01:25:04;14.57;;;11.27;;
3274;SDS011;1649;53.672;10.064;2023-07-30T01:27:30;15.93;;;11.30;;
3274;SDS011;1649;53.672;10.064;2023-07-30T01:32:43;15.00;;;11.30;;
3274;SDS011;1649;53.672;10.064;2023-07-30T01:35:10;15.00;;;11.70;;
3274;SDS011;1649;53.672;10.064;2023-07-30T01:37:38;18.17;;;11.47;;
3274;SDS011;1649;53.672;10.064;2023-07-30T01:40:04;14.80;;;11.27;;
3274;SDS011;1649;53.672;10.064;2023-07-30T01:42:31;15.47;;;11.30;;
3274;SDS011;1649;53.672;10.064;2023-07-30T01:44:56;14.00;;;10.63;;
3274;SDS011;1649;53.672;10.064;2023-07-30T01:47:22;16.63;;;12.10;;
3274;SDS011;1649;53.672;10.064;2023-07-30T01:49:47;15.00;;;12.00;;
3274;SDS011;1649;53.672;10.064;2023-07-30T01:52:13;17.33;;;11.87;;
3274;SDS011;1649;53.672;10.064;2023-07-30T01:54:38;16.83;;;12.40;;
3274;SDS011;1649;53.672;10.064;2023-07-30T01:57:04;16.57;;;11.57;;
3274;SDS011;1649;53.672;10.064;2023-07-30T01:59:29;15.50;;;12.60;;
3274;SDS011;1649;53.672;10.064;2023-07-30T02:01:55;16.57;;;12.10;;
3274;SDS011;1649;53.672;10.064;2023-07-30T02:04:20;15.73;;;12.50;;
3274;SDS011;1649;53.672;10.064;2023-07-30T02:06:46;17.20;;;13.40;;
3274;SDS011;1649;53.672;10.064;2023-07-30T02:09:12;16.07;;;11.87;;
3274;SDS011;1649;53.672;10.064;2023-07-30T02:11:37;16.67;;;12.87;;
3274;SDS011;1649;53.672;10.064;2023-07-30T02:14:02;21.17;;;13.80;;
3274;SDS011;1649;53.672;10.064;2023-07-30T02:16:28;18.30;;;13.37;;
3274;SDS011;1649;53.672;10.064;2023-07-30T02:18:53;18.33;;;12.27;;
3274;SDS011;1649;53.672;10.064;2023-07-30T02:21:19;18.00;;;13.90;;
3274;SDS011;1649;53.672;10.064;2023-07-30T02:23:44;18.27;;;14.40;;
3274;SDS011;1649;53.672;10.064;2023-07-30T02:26:10;22.63;;;15.40;;
3274;SDS011;1649;53.672;10.064;2023-07-30T02:28:35;17.40;;;12.30;;
3274;SDS011;1649;53.672;10.064;2023-07-30T02:31:01;15.87;;;12.73;;
3274;SDS011;1649;53.672;10.064;2023-07-30T02:33:26;19.87;;;15.13;;
3274;SDS011;1649;53.672;10.064;2023-07-30T02:35:52;19.73;;;14.33;;
3274;SDS011;1649;53.672;10.064;2023-07-30T02:38:17;15.40;;;12.10;;
3274;SDS011;1649;53.672;10.064;2023-07-30T02:40:42;21.90;;;15.07;;
3274;SDS011;1649;53.672;10.064;2023-07-30T02:43:08;16.97;;;13.20;;
3274;SDS011;1649;53.672;10.064;2023-07-30T02:45:33;19.97;;;12.53;;
3274;SDS011;1649;53.672;10.064;2023-07-30T02:47:59;19.47;;;13.40;;
3274;SDS011;1649;53.672;10.064;2023-07-30T02:50:24;18.50;;;13.60;;
3274;SDS011;1649;53.672;10.064;2023-07-30T02:52:50;16.97;;;12.63;;
3274;SDS011;1649;53.672;10.064;2023-07-30T02:55:15;22.80;;;15.40;;
3274;SDS011;1649;53.672;10.064;2023-07-30T02:57:41;16.70;;;13.53;;
3274;SDS011;1649;53.672;10.064;2023-07-30T03:00:06;17.33;;;12.87;;
3274;SDS011;1649;53.672;10.064;2023-07-30T03:02:33;19.83;;;13.50;;
3274;SDS011;1649;53.672;10.064;2023-07-30T03:04:59;20.20;;;13.93;;
3274;SDS011;1649;53.672;10.064;2023-07-30T03:07:25;17.67;;;13.13;;
3274;SDS011;1649;53.672;10.064;2023-07-30T03:09:51;18.00;;;13.27;;
3274;SDS011;1649;53.672;10.064;2023-07-30T03:12:16;18.47;;;13.53;;
3274;SDS011;1649;53.672;10.064;2023-07-30T03:14:42;21.13;;;14.47;;
3274;SDS011;1649;53.672;10.064;2023-07-30T03:17:07;19.37;;;14.30;;
3274;SDS011;1649;53.672;10.064;2023-07-30T03:19:33;20.80;;;12.43;;
3274;SDS011;1649;53.672;10.064;2023-07-30T03:21:58;18.43;;;13.33;;
3274;SDS011;1649;53.672;10.064;2023-07-30T03:24:24;17.07;;;12.93;;
3274;SDS011;1649;53.672;10.064;2023-07-30T03:26:49;19.97;;;13.37;;
3274;SDS011;1649;53.672;10.064;2023-07-30T03:29:15;18.70;;;13.50;;
3274;SDS011;1649;53.672;10.064;2023-07-30T03:31:41;16.80;;;12.57;;
3274;SDS011;1649;53.672;10.064;2023-07-30T03:34:06;18.43;;;12.87;;
3274;SDS011;1649;53.672;10.064;2023-07-30T03:36:32;15.57;;;12.27;;
3274;SDS011;1649;53.672;10.064;2023-07-30T03:38:58;21.03;;;13.17;;
3274;SDS011;1649;53.672;10.064;2023-07-30T03:41:24;15.80;;;11.63;;
3274;SDS011;1649;53.672;10.064;2023-07-30T03:43:49;18.70;;;13.53;;
3274;SDS011;1649;53.672;10.064;2023-07-30T03:46:15;18.60;;;12.70;;
3274;SDS011;1649;53.672;10.064;2023-07-30T03:48:40;17.27;;;12.63;;
3274;SDS011;1649;53.672;10.064;2023-07-30T03:51:06;16.60;;;12.53;;
3274;SDS011;1649;53.672;10.064;2023-07-30T03:53:32;18.70;;;11.50;;
3274;SDS011;1649;53.672;10.064;2023-07-30T03:55:58;19.23;;;12.40;;
3274;SDS011;1649;53.672;10.064;2023-07-30T03:58:24;16.37;;;12.27;;
3274;SDS011;1649;53.672;10.064;2023-07-30T04:00:49;17.33;;;13.53;;
3274;SDS011;1649;53.672;10.064;2023-07-30T04:03:15;17.63;;;12.87;;
3274;SDS011;1649;53.672;10.064;2023-07-30T04:05:40;18.63;;;12.70;;
3274;SDS011;1649;53.672;10.064;2023-07-30T04:08:06;18.77;;;12.87;;
3274;SDS011;1649;53.672;10.064;2023-07-30T04:10:31;22.00;;;14.30;;
3274;SDS011;1649;53.672;10.064;2023-07-30T04:12:57;21.43;;;13.33;;
3274;SDS011;1649;53.672;10.064;2023-07-30T04:15:22;21.70;;;14.50;;
3274;SDS011;1649;53.672;10.064;2023-07-30T04:17:48;22.83;;;12.33;;
3274;SDS011;1649;53.672;10.064;2023-07-30T04:20:13;20.77;;;15.40;;
3274;SDS011;1649;53.672;10.064;2023-07-30T04:22:39;22.97;;;15.63;;
3274;SDS011;1649;53.672;10.064;2023-07-30T04:25:06;21.20;;;15.90;;
3274;SDS011;1649;53.672;10.064;2023-07-30T04:27:32;20.80;;;15.80;;
3274;SDS011;1649;53.672;10.064;2023-07-30T04:29:58;24.97;;;16.77;;
3274;SDS011;1649;53.672;10.064;2023-07-30T04:32:23;24.60;;;16.30;;
3274;SDS011;1649;53.672;10.064;2023-07-30T04:34:49;22.33;;;14.30;;
3274;SDS011;1649;53.672;10.064;2023-07-30T04:37:14;22.13;;;14.63;;
3274;SDS011;1649;53.672;10.064;2023-07-30T04:39:40;19.30;;;14.47;;
3274;SDS011;1649;53.672;10.064;2023-07-30T04:42:05;25.57;;;16.53;;
3274;SDS011;1649;53.672;10.064;2023-07-30T04:44:32;26.50;;;18.17;;
3274;SDS011;1649;53.672;10.064;2023-07-30T04:46:57;23.90;;;14.57;;
3274;SDS011;1649;53.672;10.064;2023-07-30T04:49:23;23.13;;;16.47;;
3274;SDS011;1649;53.672;10.064;2023-07-30T04:51:48;23.53;;;16.17;;
3274;SDS011;1649;53.672;10.064;2023-07-30T04:54:14;22.97;;;15.40;;
3274;SDS011;1649;53.672;10.064;2023-07-30T04:56:40;22.13;;;15.80;;
3274;SDS011;1649;53.672;10.064;2023-07-30T04:59:05;23.73;;;15.17;;
3274;SDS011;1649;53.672;10.064;2023-07-30T05:01:31;25.67;;;15.93;;
3274;SDS011;1649;53.672;10.064;2023-07-30T05:03:56;26.77;;;16.33;;
3274;SDS011;1649;53.672;10.064;2023-07-30T05:06:22;25.17;;;15.60;;
3274;SDS011;1649;53.672;10.064;2023-07-30T05:08:48;21.67;;;14.50;;
3274;SDS011;1649;53.672;10.064;2023-07-30T05:11:13;27.07;;;15.13;;
3274;SDS011;1649;53.672;10.064;2023-07-30T05:13:39;25.53;;;15.67;;
3274;SDS011;1649;53.672;10.064;2023-07-30T05:16:04;23.07;;;15.10;;
3274;SDS011;1649;53.672;10.064;2023-07-30T05:18:30;20.30;;;14.47;;
3274;SDS011;1649;53.672;10.064;2023-07-30T05:20:55;20.17;;;13.70;;
3274;SDS011;1649;53.672;10.064;2023-07-30T05:23:21;23.37;;;13.80;;
3274;SDS011;1649;53.672;10.064;2023-07-30T05:25:47;25.00;;;13.70;;
3274;SDS011;1649;53.672;10.064;2023-07-30T05:28:12;16.43;;;12.30;;
3274;SDS011;1649;53.672;10.064;2023-07-30T05:30:38;22.87;;;13.03;;
3274;SDS011;1649;53.672;10.064;2023-07-30T05:33:03;18.57;;;12.37;;
3274;SDS011;1649;53.672;10.064;2023-07-30T05:35:29;17.77;;;12.27;;
3274;SDS011;1649;53.672;10.064;2023-07-30T05:37:54;16.93;;;11.37;;
3274;SDS011;1649;53.672;10.064;2023-07-30T05:40:20;16.57;;;10.70;;
3274;SDS011;1649;53.672;10.064;2023-07-30T05:42:46;19.57;;;10.97;;
3274;SDS011;1649;53.672;10.064;2023-07-30T05:45:11;16.57;;;11.03;;
3274;SDS011;1649;53.672;10.064;2023-07-30T05:47:37;21.67;;;11.00;;
3274;SDS011;1649;53.672;10.064;2023-07-30T05:50:03;16.07;;;10.70;;
3274;SDS011;1649;53.672;10.064;2023-07-30T05:52:28;18.37;;;10.80;;
3274;SDS011;1649;53.672;10.064;2023-07-30T05:54:54;17.83;;;9.73;;
3274;SDS011;1649;53.672;10.064;2023-07-30T05:57:19;18.40;;;9.73;;
3274;SDS011;1649;53.672;10.064;2023-07-30T05:59:45;17.20;;;10.00;;
3274;SDS011;1649;53.672;10.064;2023-07-30T06:02:10;18.00;;;9.97;;
3274;SDS011;1649;53.672;10.064;2023-07-30T06:04:36;19.23;;;9.00;;
3274;SDS011;1649;53.672;10.064;2023-07-30T06:07:04;16.33;;;9.93;;
3274;SDS011;1649;53.672;10.064;2023-07-30T06:09:30;16.13;;;9.03;;
3274;SDS011;1649;53.672;10.064;2023-07-30T06:11:56;17.57;;;9.33;;
3274;SDS011;1649;53.672;10.064;2023-07-30T06:14:25;16.90;;;9.37;;
3274;SDS011;1649;53.672;10.064;2023-07-30T06:16:54;23.20;;;11.53;;
3274;SDS011;1649;53.672;10.064;2023-07-30T06:19:19;17.23;;;9.87;;
3274;SDS011;1649;53.672;10.064;2023-07-30T06:21:45;18.43;;;8.83;;
3274;SDS011;1649;53.672;10.064;2023-07-30T06:24:11;15.83;;;8.60;;
3274;SDS011;1649;53.672;10.064;2023-07-30T06:26:36;19.40;;;9.77;;
3274;SDS011;1649;53.672;10.064;2023-07-30T06:29:02;12.47;;;7.63;;
3274;SDS011;1649;53.672;10.064;2023-07-30T06:31:27;15.90;;;9.87;;
3274;SDS011;1649;53.672;10.064;2023-07-30T06:33:53;17.53;;;9.27;;
3274;SDS011;1649;53.672;10.064;2023-07-30T06:36:20;14.00;;;8.90;;
3274;SDS011;1649;53.672;10.064;2023-07-30T06:38:46;18.30;;;8.70;;
3274;SDS011;1649;53.672;10.064;2023-07-30T06:41:11;17.53;;;8.83;;
3274;SDS011;1649;53.672;10.064;2023-07-30T06:43:37;20.93;;;9.70;;
3274;SDS011;1649;53.672;10.064;2023-07-30T06:46:02;16.87;;;9.53;;
3274;SDS011;1649;53.672;10.064;2023-07-30T06:48:28;16.70;;;9.13;;
3274;SDS011;1649;53.672;10.064;2023-07-30T06:50:54;15.63;;;8.30;;
3274;SDS011;1649;53.672;10.064;2023-07-30T06:53:19;17.27;;;9.00;;
3274;SDS011;1649;53.672;10.064;2023-07-30T06:55:45;18.07;;;9.50;;
3274;SDS011;1649;53.672;10.064;2023-07-30T06:58:10;15.97;;;9.43;;
3274;SDS011;1649;53.672;10.064;2023-07-30T07:00:36;20.77;;;10.93;;
3274;SDS011;1649;53.672;10.064;2023-07-30T07:03:02;17.30;;;10.03;;
3274;SDS011;1649;53.672;10.064;2023-07-30T07:05:27;18.33;;;10.53;;
3274;SDS011;1649;53.672;10.064;2023-07-30T07:07:53;20.30;;;11.70;;
3274;SDS011;1649;53.672;10.064;2023-07-30T07:10:18;19.13;;;11.80;;
3274;SDS011;1649;53.672;10.064;2023-07-30T07:12:44;18.50;;;11.00;;
3274;SDS011;1649;53.672;10.064;2023-07-30T07:15:09;17.20;;;11.17;;
3274;SDS011;1649;53.672;10.064;2023-07-30T07:17:35;21.13;;;13.30;;
3274;SDS011;1649;53.672;10.064;2023-07-30T07:20:00;16.53;;;11.97;;
3274;SDS011;1649;53.672;10.064;2023-07-30T07:22:28;27.47;;;12.73;;
3274;SDS011;1649;53.672;10.064;2023-07-30T07:24:54;19.63;;;12.60;;
3274;SDS011;1649;53.672;10.064;2023-07-30T07:27:19;20.23;;;13.53;;
3274;SDS011;1649;53.672;10.064;2023-07-30T07:29:45;23.50;;;13.13;;
3274;SDS011;1649;53.672;10.064;2023-07-30T07:32:11;20.00;;;13.33;;
3274;SDS011;1649;53.672;10.064;2023-07-30T07:34:37;16.63;;;12.60;;
3274;SDS011;1649;53.672;10.064;2023-07-30T07:37:02;23.27;;;12.30;;
3274;SDS011;1649;53.672;10.064;2023-07-30T07:39:28;17.90;;;12.17;;
3274;SDS011;1649;53.672;10.064;2023-07-30T07:41:53;21.70;;;12.93;;
3274;SDS011;1649;53.672;10.064;2023-07-30T07:44:20;19.87;;;12.97;;
3274;SDS011;1649;53.672;10.064;2023-07-30T07:46:46;25.47;;;12.77;;
3274;SDS011;1649;53.672;10.064;2023-07-30T07:49:12;17.53;;;10.80;;
3274;SDS011;1649;53.672;10.064;2023-07-30T07:51:37;21.37;;;12.33;;
3274;SDS011;1649;53.672;10.064;2023-07-30T07:54:03;17.47;;;10.73;;
3274;SDS011;1649;53.672;10.064;2023-07-30T07:56:29;17.47;;;10.63;;
3274;SDS011;1649;53.672;10.064;2023-07-30T07:58:55;18.17;;;9.77;;
3274;SDS011;1649;53.672;10.064;2023-07-30T08:01:20;14.50;;;9.30;;
3274;SDS011;1649;53.672;10.064;2023-07-30T08:03:46;19.27;;;10.03;;
3274;SDS011;1649;53.672;10.064;2023-07-30T08:06:11;16.30;;;10.00;;
3274;SDS011;1649;53.672;10.064;2023-07-30T08:08:37;19.17;;;10.03;;
3274;SDS011;1649;53.672;10.064;2023-07-30T08:11:06;26.03;;;9.70;;
3274;SDS011;1649;53.672;10.064;2023-07-30T08:13:32;18.93;;;8.23;;
3274;SDS011;1649;53.672;10.064;2023-07-30T08:15:57;13.17;;;8.40;;
3274;SDS011;1649;53.672;10.064;2023-07-30T08:18:23;19.27;;;8.03;;
3274;SDS011;1649;53.672;10.064;2023-07-30T08:20:49;12.87;;;8.40;;
3274;SDS011;1649;53.672;10.064;2023-07-30T08:23:15;16.30;;;8.20;;
3274;SDS011;1649;53.672;10.064;2023-07-30T08:25:40;14.70;;;7.63;;
3274;SDS011;1649;53.672;10.064;2023-07-30T08:28:06;17.50;;;8.10;;
3274;SDS011;1649;53.672;10.064;2023-07-30T08:30:31;16.93;;;6.70;;
3274;SDS011;1649;53.672;10.064;2023-07-30T08:32:57;14.93;;;7.60;;
3274;SDS011;1649;53.672;10.064;2023-07-30T08:35:22;15.90;;;7.00;;
3274;SDS011;1649;53.672;10.064;2023-07-30T08:37:48;14.50;;;7.90;;
3274;SDS011;1649;53.672;10.064;2023-07-30T08:40:14;14.77;;;7.10;;
3274;SDS011;1649;53.672;10.064;2023-07-30T08:42:39;13.80;;;6.57;;
3274;SDS011;1649;53.672;10.064;2023-07-30T08:45:05;19.23;;;6.97;;
3274;SDS011;1649;53.672;10.064;2023-07-30T08:47:32;11.93;;;6.47;;
3274;SDS011;1649;53.672;10.064;2023-07-30T08:49:58;10.47;;;6.00;;
3274;SDS011;1649;53.672;10.064;2023-07-30T08:52:24;12.17;;;5.80;;
3274;SDS011;1649;53.672;10.064;2023-07-30T08:54:50;10.73;;;6.27;;
3274;SDS011;1649;53.672;10.064;2023-07-30T08:57:17;11.30;;;6.20;;
3274;SDS011;1649;53.672;10.064;2023-07-30T08:59:47;12.27;;;6.63;;
3274;SDS011;1649;53.672;10.064;2023-07-30T09:02:18;9.73;;;5.47;;
3274;SDS011;1649;53.672;10.064;2023-07-30T09:04:56;11.57;;;6.03;;
3274;SDS011;1649;53.672;10.064;2023-07-30T09:07:25;12.00;;;5.97;;
3274;SDS011;1649;53.672;10.064;2023-07-30T09:09:50;12.13;;;5.30;;
3274;SDS011;1649;53.672;10.064;2023-07-30T09:12:16;13.50;;;5.30;;
3274;SDS011;1649;53.672;10.064;2023-07-30T09:14:41;11.93;;;5.37;;
3274;SDS011;1649;53.672;10.064;2023-07-30T09:17:10;10.53;;;4.70;;
3274;SDS011;1649;53.672;10.064;2023-07-30T09:19:36;14.07;;;4.20;;
3274;SDS011;1649;53.672;10.064;2023-07-30T09:22:05;12.70;;;4.10;;
3274;SDS011;1649;53.672;10.064;2023-07-30T09:24:31;13.63;;;4.70;;
3274;SDS011;1649;53.672;10.064;2023-07-30T09:26:57;14.27;;;4.40;;
3274;SDS011;1649;53.672;10.064;2023-07-30T09:29:26;12.70;;;5.33;;
3274;SDS011;1649;53.672;10.064;2023-07-30T09:31:52;14.17;;;4.83;;
3274;SDS011;1649;53.672;10.064;2023-07-30T09:34:19;9.80;;;3.97;;
3274;SDS011;1649;53.672;10.064;2023-07-30T09:36:46;13.27;;;4.47;;
3274;SDS011;1649;53.672;10.064;2023-07-30T09:39:19;10.13;;;4.10;;
3274;SDS011;1649;53.672;10.064;2023-07-30T09:41:52;10.73;;;4.90;;
3274;SDS011;1649;53.672;10.064;2023-07-30T09:44:24;12.77;;;5.00;;
3274;SDS011;1649;53.672;10.064;2023-07-30T09:46:49;12.53;;;4.20;;
3274;SDS011;1649;53.672;10.064;2023-07-30T09:49:16;10.23;;;4.03;;
3274;SDS011;1649;53.672;10.064;2023-07-30T09:51:41;11.30;;;4.07;;
3274;SDS011;1649;53.672;10.064;2023-07-30T09:54:08;10.10;;;3.63;;
3274;SDS011;1649;53.672;10.064;2023-07-30T09:56:36;10.33;;;4.63;;
3274;SDS011;1649;53.672;10.064;2023-07-30T09:59:03;10.63;;;4.03;;
3274;SDS011;1649;53.672;10.064;2023-07-30T10:01:30;9.77;;;4.13;;
3274;SDS011;1649;53.672;10.064;2023-07-30T10:03:57;12.20;;;4.90;;
3274;SDS011;1649;53.672;10.064;2023-07-30T10:06:23;11.20;;;4.60;;
3274;SDS011;1649;53.672;10.064;2023-07-30T10:08:52;11.77;;;5.40;;
3274;SDS011;1649;53.672;10.064;2023-07-30T10:11:20;12.33;;;5.30;;
3274;SDS011;1649;53.672;10.064;2023-07-30T10:13:47;13.27;;;6.00;;
3274;SDS011;1649;53.672;10.064;2023-07-30T10:16:13;12.90;;;5.80;;
3274;SDS011;1649;53.672;10.064;2023-07-30T10:18:39;10.60;;;4.80;;
3274;SDS011;1649;53.672;10.064;2023-07-30T10:21:08;10.10;;;5.23;;
3274;SDS011;1649;53.672;10.064;2023-07-30T10:23:35;14.63;;;5.20;;
3274;SDS011;1649;53.672;10.064;2023-07-30T10:26:10;12.60;;;5.30;;
3274;SDS011;1649;53.672;10.064;2023-07-30T10:28:36;11.60;;;5.67;;
3274;SDS011;1649;53.672;10.064;2023-07-30T10:31:05;11.90;;;5.43;;
3274;SDS011;1649;53.672;10.064;2023-07-30T10:36:17;8.10;;;5.50;;
3274;SDS011;1649;53.672;10.064;2023-07-30T10:38:44;14.03;;;6.00;;
3274;SDS011;1649;53.672;10.064;2023-07-30T10:41:12;10.20;;;5.93;;
3274;SDS011;1649;53.672;10.064;2023-07-30T10:43:48;9.73;;;5.67;;
3274;SDS011;1649;53.672;10.064;2023-07-30T10:46:15;10.40;;;5.73;;
3274;SDS011;1649;53.672;10.064;2023-07-30T10:48:43;12.60;;;6.60;;
3274;SDS011;1649;53.672;10.064;2023-07-30T10:51:11;12.10;;;7.33;;
3274;SDS011;1649;53.672;10.064;2023-07-30T10:53:38;13.00;;;6.27;;
3274;SDS011;1649;53.672;10.064;2023-07-30T10:56:04;12.27;;;5.80;;
3274;SDS011;1649;53.672;10.064;2023-07-30T10:58:32;9.60;;;5.67;;
3274;SDS011;1649;53.672;10.064;2023-07-30T11:01:03;10.13;;;6.00;;
3274;SDS011;1649;53.672;10.064;2023-07-30T11:03:30;13.60;;;5.93;;
3274;SDS011;1649;53.672;10.064;2023-07-30T11:05:57;14.90;;;5.47;;
3274;SDS011;1649;53.672;10.064;2023-07-30T11:08:36;10.17;;;5.00;;
3274;SDS011;1649;53.672;10.064;2023-07-30T11:11:03;7.90;;;4.20;;
3274;SDS011;1649;53.672;10.064;2023-07-30T11:13:34;11.73;;;4.63;;
3274;SDS011;1649;53.672;10.064;2023-07-30T11:16:04;10.27;;;4.93;;
3274;SDS011;1649;53.672;10.064;2023-07-30T11:18:31;8.87;;;3.53;;
3274;SDS011;1649;53.672;10.064;2023-07-30T11:21:07;7.30;;;3.27;;
3274;SDS011;1649;53.672;10.064;2023-07-30T11:23:35;13.80;;;3.57;;
3274;SDS011;1649;53.672;10.064;2023-07-30T11:26:02;6.63;;;3.03;;
3274;SDS011;1649;53.672;10.064;2023-07-30T11:28:32;11.70;;;2.87;;
3274;SDS011;1649;53.672;10.064;2023-07-30T11:31:00;6.63;;;2.17;;
3274;SDS011;1649;53.672;10.064;2023-07-30T11:33:30;6.67;;;2.63;;
3274;SDS011;1649;53.672;10.064;2023-07-30T11:35:57;8.40;;;3.40;;
3274;SDS011;1649;53.672;10.064;2023-07-30T11:38:25;6.97;;;2.77;;
3274;SDS011;1649;53.672;10.064;2023-07-30T11:40:52;8.53;;;2.40;;
3274;SDS011;1649;53.672;10.064;2023-07-30T11:43:19;11.60;;;3.00;;
3274;SDS011;1649;53.672;10.064;2023-07-30T11:45:46;6.60;;;2.50;;
3274;SDS011;1649;53.672;10.064;2023-07-30T11:48:12;8.47;;;2.50;;
3274;SDS011;1649;53.672;10.064;2023-07-30T11:50:50;9.60;;;2.80;;
3274;SDS011;1649;53.672;10.064;2023-07-30T11:53:16;6.63;;;2.33;;
3274;SDS011;1649;53.672;10.064;2023-07-30T11:55:43;7.03;;;2.17;;
3274;SDS011;1649;53.672;10.064;2023-07-30T11:58:10;7.27;;;2.10;;
3274;SDS011;1649;53.672;10.064;2023-07-30T12:00:38;7.03;;;2.70;;
3274;SDS011;1649;53.672;10.064;2023-07-30T12:03:05;7.97;;;2.67;;
3274;SDS011;1649;53.672;10.064;2023-07-30T12:05:32;7.97;;;2.53;;
3274;SDS011;1649;53.672;10.064;2023-07-30T12:07:59;8.13;;;2.77;;
3274;SDS011;1649;53.672;10.064;2023-07-30T12:10:28;12.77;;;2.70;;
3274;SDS011;1649;53.672;10.064;2023-07-30T12:13:10;7.43;;;2.40;;
3274;SDS011;1649;53.672;10.064;2023-07-30T12:15:36;6.37;;;2.83;;
3274;SDS011;1649;53.672;10.064;2023-07-30T12:18:02;7.63;;;2.43;;
3274;SDS011;1649;53.672;10.064;2023-07-30T12:20:28;8.13;;;3.00;;
3274;SDS011;1649;53.672;10.064;2023-07-30T12:22:54;6.80;;;2.20;;
3274;SDS011;1649;53.672;10.064;2023-07-30T12:25:20;7.50;;;2.50;;
3274;SDS011;1649;53.672;10.064;2023-07-30T12:27:45;6.73;;;2.57;;
3274;SDS011;1649;53.672;10.064;2023-07-30T12:30:11;6.70;;;2.07;;
3274;SDS011;1649;53.672;10.064;2023-07-30T12:32:36;11.20;;;2.37;;
3274;SDS011;1649;53.672;10.064;2023-07-30T12:35:02;8.80;;;3.00;;
3274;SDS011;1649;53.672;10.064;2023-07-30T12:37:28;7.80;;;2.63;;
3274;SDS011;1649;53.672;10.064;2023-07-30T12:39:54;7.80;;;2.97;;
3274;SDS011;1649;53.672;10.064;2023-07-30T12:42:19;8.20;;;2.53;;
3274;SDS011;1649;53.672;10.064;2023-07-30T12:44:45;7.70;;;2.27;;
3274;SDS011;1649;53.672;10.064;2023-07-30T12:47:10;8.20;;;3.00;;
3274;SDS011;1649;53.672;10.064;2023-07-30T12:49:35;6.10;;;2.53;;
3274;SDS011;1649;53.672;10.064;2023-07-30T12:52:01;6.13;;;2.60;;
3274;SDS011;1649;53.672;10.064;2023-07-30T12:54:26;8.47;;;2.57;;
3274;SDS011;1649;53.672;10.064;2023-07-30T12:56:52;7.40;;;2.53;;
3274;SDS011;1649;53.672;10.064;2023-07-30T12:59:17;7.33;;;2.63;;
3274;SDS011;1649;53.672;10.064;2023-07-30T13:01:43;5.53;;;2.53;;
3274;SDS011;1649;53.672;10.064;2023-07-30T13:04:08;10.63;;;2.80;;
3274;SDS011;1649;53.672;10.064;2023-07-30T13:06:34;9.27;;;2.67;;
3274;SDS011;1649;53.672;10.064;2023-07-30T13:08:59;6.80;;;2.63;;
3274;SDS011;1649;53.672;10.064;2023-07-30T13:11:24;6.20;;;2.93;;
3274;SDS011;1649;53.672;10.064;2023-07-30T13:13:50;11.87;;;3.73;;
3274;SDS011;1649;53.672;10.064;2023-07-30T13:16:15;6.70;;;3.10;;
3274;SDS011;1649;53.672;10.064;2023-07-30T13:18:41;9.50;;;3.70;;
3274;SDS011;1649;53.672;10.064;2023-07-30T13:21:06;8.60;;;3.57;;
3274;SDS011;1649;53.672;10.064;2023-07-30T13:23:32;9.37;;;3.70;;
3274;SDS011;1649;53.672;10.064;2023-07-30T13:25:57;10.40;;;3.47;;
3274;SDS011;1649;53.672;10.064;2023-07-30T13:28:23;7.80;;;2.97;;
3274;SDS011;1649;53.672;10.064;2023-07-30T13:30:48;8.30;;;2.97;;
3274;SDS011;1649;53.672;10.064;2023-07-30T13:33:15;7.43;;;3.20;;
3274;SDS011;1649;53.672;10.064;2023-07-30T13:35:41;7.57;;;3.37;;
3274;SDS011;1649;53.672;10.064;2023-07-30T13:38:06;7.20;;;3.83;;
3274;SDS011;1649;53.672;10.064;2023-07-30T13:40:32;6.63;;;2.63;;
3274;SDS011;1649;53.672;10.064;2023-07-30T13:42:57;6.63;;;2.70;;
3274;SDS011;1649;53.672;10.064;2023-07-30T13:45:23;6.97;;;3.00;;
3274;SDS011;1649;53.672;10.064;2023-07-30T13:47:48;8.93;;;2.97;;
3274;SDS011;1649;53.672;10.064;2023-07-30T13:50:14;9.00;;;3.10;;
3274;SDS011;1649;53.672;10.064;2023-07-30T13:52:39;7.70;;;3.30;;
3274;SDS011;1649;53.672;10.064;2023-07-30T13:55:05;7.63;;;2.90;;
3274;SDS011;1649;53.672;10.064;2023-07-30T13:57:30;11.33;;;3.00;;
3274;SDS011;1649;53.672;10.064;2023-07-30T13:59:56;8.83;;;3.43;;
3274;SDS011;1649;53.672;10.064;2023-07-30T14:02:21;5.70;;;3.00;;
3274;SDS011;1649;53.672;10.064;2023-07-30T14:04:47;9.93;;;2.73;;
3274;SDS011;1649;53.672;10.064;2023-07-30T14:07:12;10.47;;;3.07;;
3274;SDS011;1649;53.672;10.064;2023-07-30T14:09:38;7.13;;;2.90;;
3274;SDS011;1649;53.672;10.064;2023-07-30T14:12:03;8.77;;;2.90;;
3274;SDS011;1649;53.672;10.064;2023-07-30T14:14:29;8.00;;;3.90;;
3274;SDS011;1649;53.672;10.064;2023-07-30T14:16:55;7.20;;;3.00;;
3274;SDS011;1649;53.672;10.064;2023-07-30T14:19:20;11.40;;;3.20;;
3274;SDS011;1649;53.672;10.064;2023-07-30T14:21:46;9.20;;;2.70;;
3274;SDS011;1649;53.672;10.064;2023-07-30T14:24:11;6.73;;;2.50;;
3274;SDS011;1649;53.672;10.064;2023-07-30T14:26:37;6.40;;;2.43;;
3274;SDS011;1649;53.672;10.064;2023-07-30T14:29:03;7.93;;;2.70;;
3274;SDS011;1649;53.672;10.064;2023-07-30T14:31:28;6.50;;;2.40;;
3274;SDS011;1649;53.672;10.064;2023-07-30T14:33:54;7.33;;;2.40;;
3274;SDS011;1649;53.672;10.064;2023-07-30T14:36:19;6.27;;;2.50;;
3274;SDS011;1649;53.672;10.064;2023-07-30T14:38:45;4.67;;;2.03;;
3274;SDS011;1649;53.672;10.064;2023-07-30T14:41:10;5.83;;;2.07;;